Ituna, Canada
Current Conditions -  °F | °C
As of 3:00 AM on Thursday 27 Nov 2014 (Local Time) from CYQV Reporting Station
Clear Clear  
Wind Chill: -36°   Ceiling: Unl
Heat Index: -26°   Visibility: 9mi
Dew Point: -29°   Wind: 9mph
Humidity: 77%   Direction: 170°S
Pressure: 30.31"   Gusts: NA
Location:  51.17°N, 103.5°W
Report Text: CYQV 270900Z AUTO 17008KT 9SM CLR M26/M29 A3031 RMK SLP325
Loading
Personal Weather Stations






























Interactive Weather Map New forecast layout! Learn more

10-Day Weather Forecast

Advertisements
Track Severe Weather on mobile